Map Display - EGAA to EGBB
(last flight recorded 29-10-2020, 21:36 - Andrew Siddall)

Aircraft Weights    Units : Maximums
Passengers :   71  
Cargo : kg 950 kg
Suggested Fuel Load : kg 9,955 kg
 
     
 
Dry Operating : 18,600 kg    
Total Payload : 0 kg 5,894 kg
 
Take Off : 21,158 kg 32,886 kg
 
Expected Landing : 19,924 kg 26,535 kg

Geoff Price,  VISC 800,  G-AOHM,  .

Route Distance Previous
Flights
Average
Duration
Average
Fuel Flow
Average
Fuel Use
EGAA - Aldergrove, Belfast
EGBB - Birmingham
207 nm 6 01:06 1,103 kg/h 1,234 kg

Current weather :-
2020/10/29 18:09
TAF TAF EGAA 291656Z 2918/3018 21012KT 9999 FEW008 BKN012
TEMPO 2918/3001 22015G28KT
TEMPO 2918/2923 7000 -RADZ RA BKN007 PROB30
TEMPO 2918/2923 4000 DZ BKN004
BECMG 2923/3001 SCT025
BECMG 3001/3003 27018G28KT PROB40
TEMPO 3002/3007 8000 -SHRA BKN012
BECMG 3003/3007 25012KT
BECMG 3015/3018 14005KT
2020/10/29 18:09
TAF EGBB 291700Z 2918/3018 22013KT 9999 SCT014 BKN030 PROB40
TEMPO 2918/2924 6000 -RADZ BKN014 PROB30
TEMPO 2918/3009 24016G26KT
TEMPO 3000/3013 6000 -RADZ BKN011 PROB40
TEMPO 3000/3013 4000 RADZ BKN008
BECMG 3008/3011 VRB03KT PROB30
TEMPO 3013/3018 6000 -RADZ BKN014

Back to Virtual Airline